Time;durP1;ratioP1;P1;durP2;ratioP2;P2;SDS_P1;SDS_P2;PMS_P1;PMS_P2;Temp;Humidity;BMP_temperature;BMP_pressure;BME280_temperature;BME280_humidity;BME280_pressure;Samples;Min_cycle;Max_cycle;Signal;HPM_P1;HPM_P2
2023/04/05 00:01:19;;;;;;;3.20;2.70;;;;;;;2.03;100.00;99660.14;107422;1275;25348;-70
2023/04/05 00:03:47;;;;;;;3.40;2.60;;;;;;;2.04;100.00;99660.01;107595;1275;23309;-70
2023/04/05 00:06:16;;;;;;;3.70;2.80;;;;;;;2.06;100.00;99655.00;107128;1275;22523;-69
2023/04/05 00:08:49;;;;;;;4.00;3.40;;;;;;;2.04;100.00;99654.48;107389;1275;23296;-70
2023/04/05 00:11:17;;;;;;;3.50;3.00;;;;;;;2.05;100.00;99650.95;107308;1275;24319;-69
2023/04/05 00:13:45;;;;;;;4.20;2.70;;;;;;;2.07;100.00;99642.34;107323;1275;22922;-69
2023/04/05 00:16:14;;;;;;;3.80;3.20;;;;;;;2.10;100.00;99640.83;107315;1275;22643;-70
2023/04/05 00:18:50;;;;;;;4.30;3.10;;;;;;;2.07;100.00;99636.11;107163;1275;25348;-69
2023/04/05 00:21:20;;;;;;;3.00;2.50;;;;;;;2.05;100.00;99636.23;109690;1275;26728;-70
2023/04/05 00:23:53;;;;;;;3.10;2.80;;;;;;;2.05;100.00;99636.79;107328;1275;25429;-70
2023/04/05 00:26:21;;;;;;;2.90;2.60;;;;;;;2.05;100.00;99647.11;107364;1275;25345;-69
2023/04/05 00:28:52;;;;;;;4.40;2.60;;;;;;;2.05;100.00;99650.65;107302;1275;25437;-70
2023/04/05 00:31:20;;;;;;;3.30;2.40;;;;;;;2.09;100.00;99658.61;107332;1275;22724;-70
2023/04/05 00:33:49;;;;;;;3.30;2.70;;;;;;;2.09;100.00;99649.75;110356;1275;23014;-70
2023/04/05 00:36:18;;;;;;;3.00;2.70;;;;;;;2.08;100.00;99648.11;110364;1275;22395;-71
2023/04/05 00:38:47;;;;;;;2.90;2.60;;;;;;;2.06;100.00;99640.70;110492;1275;22388;-70
2023/04/05 00:41:15;;;;;;;2.80;2.20;;;;;;;2.14;100.00;99634.89;109819;1275;22909;-69
2023/04/05 00:43:43;;;;;;;3.50;2.60;;;;;;;2.20;100.00;99621.73;107301;1275;24624;-69
2023/04/05 00:49:08;;;;;;;5.40;3.10;;;;;;;2.15;100.00;99617.35;103993;1304;544987;-69
2023/04/05 00:51:37;;;;;;;4.40;3.20;;;;;;;2.12;100.00;99614.41;106154;1288;22536;-68
2023/04/05 00:54:07;;;;;;;3.70;2.80;;;;;;;2.13;100.00;99609.45;106889;1281;22510;-69
2023/04/05 00:56:35;;;;;;;4.20;2.70;;;;;;;2.09;100.00;99608.68;107027;1281;25486;-69
2023/04/05 00:59:03;;;;;;;2.50;2.00;;;;;;;2.13;100.00;99611.06;106658;1281;25359;-68
2023/04/05 01:01:33;;;;;;;2.90;2.40;;;;;;;2.19;100.00;99613.28;107060;1281;25404;-69
2023/04/05 01:04:02;;;;;;;3.80;2.70;;;;;;;2.16;100.00;99608.95;107015;1279;241693;-68
2023/04/05 01:06:53;;;;;;;2.60;2.10;;;;;;;2.12;100.00;99609.30;107088;1279;22571;-68
2023/04/05 01:09:25;;;;;;;4.00;3.20;;;;;;;2.12;100.00;99605.00;106862;1279;25348;-69
2023/04/05 01:11:55;;;;;;;4.00;2.60;;;;;;;2.05;100.00;99597.00;106950;1279;22536;-69
2023/04/05 01:14:23;;;;;;;5.00;3.50;;;;;;;2.04;100.00;99600.98;107197;1279;22689;-69
2023/04/05 01:16:56;;;;;;;4.80;2.90;;;;;;;2.03;100.00;99591.20;107234;1279;25425;-69
2023/04/05 01:19:27;;;;;;;4.30;3.10;;;;;;;2.03;100.00;99584.84;107188;1279;23829;-69
2023/04/05 01:22:12;;;;;;;3.60;2.70;;;;;;;2.07;100.00;99578.89;106991;1279;25392;-68
2023/04/05 01:24:56;;;;;;;4.30;3.30;;;;;;;2.06;100.00;99575.19;107159;1279;25603;-69
2023/04/05 01:27:50;;;;;;;4.60;2.90;;;;;;;1.98;100.00;99574.17;107220;1279;24235;-69
2023/04/05 01:30:25;;;;;;;2.90;2.50;;;;;;;2.01;100.00;99570.84;107081;1278;23672;-69
2023/04/05 01:33:12;;;;;;;3.40;2.10;;;;;;;2.04;100.00;99567.31;106877;1279;22546;-69
2023/04/05 01:35:50;;;;;;;3.30;2.00;;;;;;;2.06;100.00;99563.41;107056;1278;25487;-69
2023/04/05 01:38:24;;;;;;;3.40;2.70;;;;;;;2.01;100.00;99560.69;107084;1279;22728;-69
2023/04/05 01:40:52;;;;;;;2.70;2.40;;;;;;;1.97;100.00;99561.75;110035;1279;22228;-69
2023/04/05 01:43:22;;;;;;;2.30;2.10;;;;;;;1.99;100.00;99560.25;110215;1279;22830;-70
2023/04/05 01:45:50;;;;;;;3.10;2.20;;;;;;;1.99;100.00;99567.35;109200;1279;22664;-69
2023/04/05 01:48:19;;;;;;;2.50;2.10;;;;;;;1.98;100.00;99567.85;106773;1279;25591;-69
2023/04/05 01:50:48;;;;;;;2.30;2.00;;;;;;;1.99;100.00;99564.38;110080;1279;23314;-70
2023/04/05 01:53:16;;;;;;;2.30;1.80;;;;;;;2.01;100.00;99563.20;110126;1279;23368;-69
2023/04/05 01:55:44;;;;;;;2.50;2.10;;;;;;;2.06;100.00;99563.00;110118;1279;23006;-70
2023/04/05 01:58:14;;;;;;;2.60;2.00;;;;;;;2.07;100.00;99556.67;110149;1279;22298;-69
2023/04/05 02:00:42;;;;;;;2.10;1.90;;;;;;;2.08;100.00;99553.96;109932;1279;22276;-69
2023/04/05 02:03:11;;;;;;;2.40;2.10;;;;;;;2.11;100.00;99553.65;107122;1279;25381;-69
2023/04/05 02:05:41;;;;;;;2.50;1.90;;;;;;;2.10;100.00;99551.55;107076;1279;23229;-69
2023/04/05 02:08:12;;;;;;;2.70;2.00;;;;;;;2.09;100.00;99543.95;107033;1279;25381;-70
2023/04/05 02:10:41;;;;;;;3.20;2.30;;;;;;;2.08;100.00;99539.75;107140;1279;24252;-70
2023/04/05 02:13:10;;;;;;;2.20;1.90;;;;;;;2.03;100.00;99537.45;107102;1256;22667;-70
2023/04/05 02:15:39;;;;;;;2.50;1.90;;;;;;;2.01;100.00;99539.75;106973;1279;25377;-69
2023/04/05 02:18:08;;;;;;;3.00;2.40;;;;;;;2.00;100.00;99533.44;106890;1280;22546;-69
2023/04/05 02:20:36;;;;;;;2.50;2.10;;;;;;;1.94;100.00;99530.44;106758;1279;25289;-69
2023/04/05 02:23:06;;;;;;;2.50;2.00;;;;;;;1.90;100.00;99531.14;107050;1279;25809;-69
2023/04/05 02:25:34;;;;;;;4.10;1.80;;;;;;;1.91;100.00;99533.48;106939;1279;25426;-69
2023/04/05 02:28:07;;;;;;;2.60;2.00;;;;;;;1.91;100.00;99527.41;106924;1279;25370;-69
2023/04/05 02:30:38;;;;;;;2.60;2.20;;;;;;;1.88;100.00;99523.76;106875;1279;25433;-69
2023/04/05 02:33:11;;;;;;;2.50;1.90;;;;;;;1.82;100.00;99524.92;106948;1279;25515;-69
2023/04/05 02:35:41;;;;;;;3.40;1.80;;;;;;;1.85;100.00;99526.39;106977;1279;22528;-69
2023/04/05 02:38:11;;;;;;;2.50;1.70;;;;;;;1.84;100.00;99523.21;107066;1279;23912;-69
2023/04/05 02:40:40;;;;;;;2.40;1.80;;;;;;;1.83;100.00;99527.15;107159;1279;25412;-69
2023/04/05 02:43:09;;;;;;;2.90;1.90;;;;;;;1.83;100.00;99526.20;107142;1279;25259;-70
2023/04/05 02:45:38;;;;;;;1.70;1.40;;;;;;;1.84;100.00;99530.77;106973;1279;22596;-69
2023/04/05 02:48:07;;;;;;;3.20;1.50;;;;;;;1.85;100.00;99530.23;106919;1279;25291;-69
2023/04/05 02:50:36;;;;;;;2.80;1.70;;;;;;;1.87;100.00;99533.93;106987;1279;26519;-70
2023/04/05 02:53:08;;;;;;;4.00;3.10;;;;;;;1.84;100.00;99533.96;106998;1279;22669;-69
2023/04/05 02:55:36;;;;;;;1.90;1.60;;;;;;;1.85;100.00;99536.59;106896;1279;22522;-70
2023/04/05 02:58:07;;;;;;;1.90;1.30;;;;;;;1.84;100.00;99534.86;107010;1279;22544;-70
2023/04/05 03:00:40;;;;;;;1.70;1.30;;;;;;;1.81;100.00;99533.85;106845;1279;25554;-69
2023/04/05 03:03:10;;;;;;;2.60;1.40;;;;;;;1.82;100.00;99535.80;109045;1279;25396;-70
2023/04/05 03:05:42;;;;;;;1.50;1.10;;;;;;;1.82;100.00;99534.42;106983;1279;25280;-70
2023/04/05 03:08:18;;;;;;;2.50;1.50;;;;;;;1.85;100.00;99536.88;106840;1279;23904;-70
2023/04/05 03:10:55;;;;;;;1.90;1.10;;;;;;;1.85;100.00;99544.23;106988;1279;26522;-70
2023/04/05 03:13:25;;;;;;;1.60;1.10;;;;;;;1.79;100.00;99538.09;107025;1279;26710;-70
2023/04/05 03:15:55;;;;;;;1.30;0.90;;;;;;;1.80;100.00;99540.89;110110;1279;22860;-70
2023/04/05 03:18:25;;;;;;;1.70;1.30;;;;;;;1.76;100.00;99541.95;109116;1259;22525;-70
2023/04/05 03:20:55;;;;;;;4.20;2.40;;;;;;;1.77;100.00;99551.06;106836;1279;25352;-70
2023/04/05 03:23:27;;;;;;;2.70;2.10;;;;;;;1.79;100.00;99550.35;108006;1279;22622;-69
2023/04/05 03:26:00;;;;;;;3.70;2.30;;;;;;;1.77;100.00;99551.16;106805;1279;24670;-69
2023/04/05 03:28:31;;;;;;;2.20;1.70;;;;;;;1.79;100.00;99549.20;106689;1279;22623;-69
2023/04/05 03:31:02;;;;;;;2.80;1.80;;;;;;;1.77;100.00;99545.69;106960;1279;24202;-69
2023/04/05 03:33:31;;;;;;;1.60;1.10;;;;;;;1.75;100.00;99544.27;106773;1279;22741;-70
2023/04/05 03:35:59;;;;;;;1.90;1.30;;;;;;;1.80;100.00;99540.52;106971;1279;23876;-70
2023/04/05 03:38:31;;;;;;;1.80;1.40;;;;;;;1.81;100.00;99537.16;106985;1279;22623;-70
2023/04/05 03:41:11;;;;;;;1.90;1.40;;;;;;;1.78;100.00;99539.86;107006;1279;24250;-70
2023/04/05 03:43:39;;;;;;;2.30;1.60;;;;;;;1.78;100.00;99540.90;107060;1279;22585;-69
2023/04/05 03:46:07;;;;;;;2.00;1.40;;;;;;;1.80;100.00;99540.15;107062;1279;25971;-70
2023/04/05 03:48:37;;;;;;;1.80;1.30;;;;;;;1.78;100.00;99533.55;107088;1278;25351;-69
2023/04/05 03:51:05;;;;;;;3.00;1.80;;;;;;;1.76;100.00;99532.13;106912;1278;22530;-70
2023/04/05 03:53:33;;;;;;;2.10;1.30;;;;;;;1.75;100.00;99531.06;106815;1278;24235;-69
2023/04/05 03:56:01;;;;;;;2.10;1.50;;;;;;;1.77;100.00;99528.89;106831;1278;24257;-70
2023/04/05 03:58:49;;;;;;;2.00;1.50;;;;;;;1.72;100.00;99529.52;106982;1279;25352;-70
2023/04/05 04:01:19;;;;;;;2.20;1.50;;;;;;;1.69;100.00;99530.95;106976;1279;23203;-70
2023/04/05 04:03:48;;;;;;;3.30;1.90;;;;;;;1.70;100.00;99532.11;107170;1278;22521;-70
2023/04/05 04:06:17;;;;;;;2.40;1.70;;;;;;;1.71;100.00;99534.27;107187;1274;22540;-70
2023/04/05 04:08:47;;;;;;;2.10;1.30;;;;;;;1.72;100.00;99536.50;107364;1274;25345;-69
2023/04/05 04:11:16;;;;;;;2.10;1.50;;;;;;;1.71;100.00;99538.31;107198;1274;22535;-70
2023/04/05 04:13:44;;;;;;;1.90;1.30;;;;;;;1.72;100.00;99536.55;107432;1274;24242;-70
2023/04/05 04:16:33;;;;;;;4.50;2.20;;;;;;;1.73;100.00;99529.56;107401;1275;23883;-70
2023/04/05 04:19:05;;;;;;;2.80;1.60;;;;;;;1.68;100.00;99529.44;107290;1274;22584;-70
2023/04/05 04:21:50;;;;;;;2.50;1.40;;;;;;;1.68;100.00;99521.52;107415;1274;25971;-69
2023/04/05 04:24:18;;;;;;;1.90;1.10;;;;;;;1.69;100.00;99522.73;107397;1274;22555;-69
2023/04/05 04:27:09;;;;;;;2.30;1.40;;;;;;;1.70;100.00;99518.80;110500;1274;23395;-69
2023/04/05 04:29:48;;;;;;;1.70;0.90;;;;;;;1.66;100.00;99512.86;110526;1274;23278;-70
2023/04/05 04:32:25;;;;;;;1.10;0.70;;;;;;;1.67;100.00;99510.65;110474;1275;22217;-70
2023/04/05 04:35:25;;;;;;;1.70;1.00;;;;;;;1.71;100.00;99518.91;110474;1275;22471;-69
2023/04/05 04:38:33;;;;;;;1.60;1.00;;;;;;;1.71;100.00;99522.02;110535;1274;22401;-70
2023/04/05 04:41:12;;;;;;;3.40;1.10;;;;;;;1.75;100.00;99527.30;110501;1274;22907;-70
2023/04/05 04:44:13;;;;;;;2.00;1.00;;;;;;;1.78;100.00;99528.97;110492;1275;23027;-70
2023/04/05 04:47:02;;;;;;;3.30;1.80;;;;;;;1.76;100.00;99529.78;108391;1274;22520;-69
2023/04/05 04:49:52;;;;;;;2.30;1.40;;;;;;;1.76;100.00;99532.55;107402;1275;23567;-69
2023/04/05 04:52:20;;;;;;;1.70;0.90;;;;;;;1.71;100.00;99530.03;107277;1274;22506;-69
2023/04/05 04:54:49;;;;;;;1.80;1.10;;;;;;;1.69;100.00;99535.79;107331;1274;25930;-69
2023/04/05 04:57:18;;;;;;;2.10;1.00;;;;;;;1.68;100.00;99532.03;107353;1274;24268;-68
2023/04/05 04:59:46;;;;;;;2.50;0.80;;;;;;;1.69;100.00;99531.52;107246;1274;22543;-69
2023/04/05 05:02:17;;;;;;;1.50;0.90;;;;;;;1.67;100.00;99525.21;107286;1274;25334;-69
2023/04/05 05:04:46;;;;;;;3.70;1.10;;;;;;;1.70;100.00;99524.45;107479;1275;25363;-69
2023/04/05 05:07:16;;;;;;;2.10;1.00;;;;;;;1.73;100.00;99519.90;107476;1275;22509;-69
2023/04/05 05:09:44;;;;;;;2.10;1.20;;;;;;;1.72;100.00;99515.52;107324;1274;24218;-69
2023/04/05 05:12:14;;;;;;;1.80;0.90;;;;;;;1.72;100.00;99508.75;107205;1274;25495;-69
2023/04/05 05:14:42;;;;;;;1.60;1.00;;;;;;;1.64;100.00;99510.59;107245;1274;24189;-69
2023/04/05 05:17:11;;;;;;;2.20;1.40;;;;;;;1.63;100.00;99506.60;107266;1274;22513;-69
2023/04/05 05:19:39;;;;;;;3.40;1.70;;;;;;;1.64;100.00;99504.19;107448;1274;22518;-69
2023/04/05 05:22:08;;;;;;;2.30;1.30;;;;;;;1.62;100.00;99508.80;107457;1274;23554;-69
2023/04/05 05:24:38;;;;;;;1.70;1.10;;;;;;;1.66;100.00;99508.21;107361;1274;22513;-70
2023/04/05 05:27:07;;;;;;;1.10;0.80;;;;;;;1.70;100.00;99506.42;107045;1263;22735;-70
2023/04/05 05:29:38;;;;;;;1.90;1.20;;;;;;;1.65;100.00;99502.58;107184;1275;23743;-70
2023/04/05 05:32:08;;;;;;;2.30;1.30;;;;;;;1.66;100.00;99502.98;107193;1274;24256;-69
2023/04/05 05:34:40;;;;;;;2.00;0.90;;;;;;;1.71;100.00;99504.38;107127;1275;22533;-69
2023/04/05 05:37:11;;;;;;;1.90;0.80;;;;;;;1.73;100.00;99494.95;107355;1275;22508;-69
2023/04/05 05:39:39;;;;;;;2.30;0.80;;;;;;;1.73;100.00;99493.83;107412;1274;22534;-69
2023/04/05 05:42:07;;;;;;;1.20;0.80;;;;;;;1.70;100.00;99495.92;107383;1274;25370;-69
2023/04/05 05:44:36;;;;;;;1.30;0.80;;;;;;;1.70;100.00;99496.77;107341;1274;22517;-69
2023/04/05 05:47:04;;;;;;;1.30;0.90;;;;;;;1.68;100.00;99504.13;107317;1275;22599;-69
2023/04/05 05:49:33;;;;;;;1.50;0.90;;;;;;;1.68;100.00;99507.89;107334;1275;22656;-69
2023/04/05 05:52:03;;;;;;;2.70;1.00;;;;;;;1.63;100.00;99509.21;107365;1275;26522;-69
2023/04/05 05:54:32;;;;;;;1.70;1.10;;;;;;;1.65;100.00;99510.46;107319;1274;26427;-69
2023/04/05 06:00:28;;;;;;;1.50;0.90;;;;;;;1.63;100.00;99500.95;110497;1274;22207;-69
2023/04/05 06:02:57;;;;;;;1.60;0.90;;;;;;;1.62;100.00;99499.60;110515;1274;22317;-69
2023/04/05 06:05:26;;;;;;;1.50;1.10;;;;;;;1.64;100.00;99498.67;110503;1274;22181;-70
2023/04/05 06:07:54;;;;;;;2.00;1.10;;;;;;;1.60;100.00;99499.67;108499;1275;24264;-69
2023/04/05 06:10:23;;;;;;;2.10;1.10;;;;;;;1.64;100.00;99497.96;107435;1274;23575;-70
2023/04/05 06:12:51;;;;;;;1.50;0.90;;;;;;;1.67;100.00;99506.06;107371;1274;24351;-69
2023/04/05 06:15:19;;;;;;;2.30;1.40;;;;;;;1.67;100.00;99505.87;107317;1275;22521;-69
2023/04/05 06:17:51;;;;;;;2.70;1.80;;;;;;;1.65;100.00;99509.60;107340;1275;23416;-69
2023/04/05 06:20:20;;;;;;;2.80;1.50;;;;;;;1.66;100.00;99507.33;107390;1274;25368;-69
2023/04/05 06:22:48;;;;;;;2.90;1.50;;;;;;;1.73;100.00;99502.34;107335;1275;22656;-69
2023/04/05 06:25:16;;;;;;;2.30;1.30;;;;;;;1.75;100.00;99505.95;107383;1274;25368;-69
2023/04/05 06:27:45;;;;;;;1.60;1.10;;;;;;;1.71;100.00;99502.98;107415;1275;22640;-69
2023/04/05 06:30:13;;;;;;;3.30;1.60;;;;;;;1.71;100.00;99505.17;107409;1274;25306;-69
2023/04/05 06:32:41;;;;;;;4.60;2.50;;;;;;;1.71;100.00;99506.98;107419;1274;25466;-69
2023/04/05 06:35:10;;;;;;;2.50;1.30;;;;;;;1.71;100.00;99503.52;107308;1274;22733;-70
2023/04/05 06:37:40;;;;;;;3.00;1.80;;;;;;;1.72;100.00;99502.81;107248;1275;22647;-69
2023/04/05 06:40:08;;;;;;;2.70;1.60;;;;;;;1.71;100.00;99504.46;107171;1275;25239;-69
2023/04/05 06:42:37;;;;;;;2.20;1.30;;;;;;;1.73;100.00;99500.56;107240;1274;24276;-69
2023/04/05 06:45:06;;;;;;;3.70;1.90;;;;;;;1.76;100.00;99504.27;107433;1275;26198;-69
2023/04/05 06:47:35;;;;;;;3.50;1.90;;;;;;;1.78;100.00;99505.52;107436;1275;23381;-70
2023/04/05 06:50:04;;;;;;;6.50;3.40;;;;;;;1.77;100.00;99499.79;107291;1275;22541;-69
2023/04/05 06:52:33;;;;;;;6.30;2.90;;;;;;;1.78;100.00;99491.67;107290;1274;22560;-69
2023/04/05 06:55:02;;;;;;;6.20;2.70;;;;;;;1.84;100.00;99494.81;107325;1274;26516;-69
2023/04/05 06:57:30;;;;;;;5.80;2.70;;;;;;;1.85;100.00;99501.85;107408;1274;26514;-69
2023/04/05 07:00:00;;;;;;;3.50;1.90;;;;;;;1.83;100.00;99505.84;107358;1274;25955;-69
2023/04/05 07:02:31;;;;;;;3.20;1.50;;;;;;;1.84;100.00;99506.30;107277;1274;25422;-69
2023/04/05 07:05:04;;;;;;;5.20;2.00;;;;;;;1.86;100.00;99501.36;110434;1274;23330;-69
2023/04/05 07:07:33;;;;;;;3.40;1.80;;;;;;;1.89;100.00;99501.29;110463;1275;22199;-69
2023/04/05 07:10:01;;;;;;;4.00;2.00;;;;;;;1.89;100.00;99496.25;110469;1275;22915;-70
2023/04/05 07:12:29;;;;;;;3.80;1.90;;;;;;;1.91;100.00;99499.16;110463;1274;23051;-69
2023/04/05 07:14:58;;;;;;;3.60;1.80;;;;;;;1.92;100.00;99491.05;110511;1275;22283;-69
2023/04/05 07:17:26;;;;;;;4.30;2.20;;;;;;;1.97;100.00;99487.98;110505;1275;22268;-70
2023/04/05 07:19:54;;;;;;;2.60;1.30;;;;;;;2.02;100.00;99481.55;110496;1275;22279;-69
2023/04/05 07:22:22;;;;;;;3.30;1.50;;;;;;;1.98;100.00;99481.17;110503;1275;22443;-69
2023/04/05 07:24:51;;;;;;;2.50;1.60;;;;;;;2.01;100.00;99476.16;110478;1275;22428;-69
2023/04/05 07:27:19;;;;;;;3.40;1.60;;;;;;;2.05;100.00;99483.04;107480;1274;26576;-69
2023/04/05 07:29:48;;;;;;;5.00;2.10;;;;;;;2.05;100.00;99491.38;107278;1275;23234;-69
2023/04/05 07:32:16;;;;;;;3.10;1.80;;;;;;;2.02;100.00;99486.45;107159;1274;22825;-69
2023/04/05 07:34:45;;;;;;;3.60;1.70;;;;;;;2.04;100.00;99487.52;107396;1274;22522;-69
2023/04/05 07:37:13;;;;;;;5.10;2.50;;;;;;;2.08;100.00;99476.89;107413;1274;22585;-70
2023/04/05 07:39:42;;;;;;;2.90;1.40;;;;;;;2.11;100.00;99471.95;107457;1274;25465;-69
2023/04/05 07:42:10;;;;;;;3.60;1.80;;;;;;;2.09;100.00;99470.05;107453;1274;24225;-70
2023/04/05 07:44:38;;;;;;;2.30;1.40;;;;;;;2.11;100.00;99478.23;107497;1275;22645;-70
2023/04/05 07:47:06;;;;;;;3.00;1.30;;;;;;;2.12;100.00;99476.93;107506;1274;22527;-69
2023/04/05 07:49:36;;;;;;;2.60;1.20;;;;;;;2.14;100.00;99473.77;107488;1274;25373;-69
2023/04/05 07:52:05;;;;;;;1.80;0.80;;;;;;;2.17;100.00;99475.35;107237;1275;23266;-70
2023/04/05 07:54:33;;;;;;;2.60;1.00;;;;;;;2.18;100.00;99476.73;107341;1274;26595;-70
2023/04/05 07:57:03;;;;;;;3.50;1.90;;;;;;;2.18;100.00;99479.13;107441;1275;23190;-70
2023/04/05 07:59:31;;;;;;;2.90;1.40;;;;;;;2.16;100.00;99485.05;107388;1274;22524;-69
2023/04/05 08:02:00;;;;;;;1.40;1.00;;;;;;;2.20;100.00;99485.55;107395;1274;22510;-70
2023/04/05 08:04:41;;;;;;;1.80;1.30;;;;;;;2.19;100.00;99488.42;107280;1274;22929;-69
2023/04/05 08:07:09;;;;;;;1.80;1.10;;;;;;;2.21;100.00;99484.27;107365;1275;22569;-69
2023/04/05 08:09:37;;;;;;;1.60;1.00;;;;;;;2.25;100.00;99484.63;107398;1274;24284;-69
2023/04/05 08:12:07;;;;;;;1.70;1.00;;;;;;;2.24;100.00;99486.41;107175;1274;25350;-69
2023/04/05 08:14:35;;;;;;;1.90;0.80;;;;;;;2.31;100.00;99481.38;107440;1274;27659;-70
2023/04/05 08:17:05;;;;;;;1.50;0.80;;;;;;;2.35;100.00;99485.29;107342;1274;22551;-69
2023/04/05 08:19:35;;;;;;;1.70;0.80;;;;;;;2.32;100.00;99487.90;107309;1275;25493;-69
2023/04/05 08:22:03;;;;;;;2.80;1.10;;;;;;;2.37;100.00;99486.10;107309;1274;22552;-70
2023/04/05 08:24:31;;;;;;;1.60;0.90;;;;;;;2.41;100.00;99487.50;110431;1274;23225;-70
2023/04/05 08:26:59;;;;;;;1.60;0.90;;;;;;;2.41;100.00;99487.30;110466;1275;22196;-69
2023/04/05 08:29:31;;;;;;;1.50;0.90;;;;;;;2.45;100.00;99492.24;110482;1274;22212;-70
2023/04/05 08:31:59;;;;;;;4.20;1.30;;;;;;;2.47;100.00;99493.20;110513;1275;22208;-69
2023/04/05 08:34:28;;;;;;;2.30;1.10;;;;;;;2.54;100.00;99496.14;110447;1274;23072;-70
2023/04/05 08:36:57;;;;;;;2.40;1.50;;;;;;;2.61;100.00;99501.35;110475;1275;22205;-69
2023/04/05 08:39:26;;;;;;;3.50;1.30;;;;;;;2.62;100.00;99497.08;110477;1275;22211;-70
2023/04/05 08:42:00;;;;;;;1.90;1.00;;;;;;;2.67;100.00;99495.66;110458;1275;22404;-70
2023/04/05 08:44:29;;;;;;;2.30;1.40;;;;;;;2.67;100.00;99494.54;110085;1274;22538;-70
2023/04/05 08:46:59;;;;;;;2.20;1.00;;;;;;;2.68;100.00;99495.26;107133;1275;25385;-69
2023/04/05 08:49:28;;;;;;;2.20;1.30;;;;;;;2.69;100.00;99498.02;107047;1275;25337;-69
2023/04/05 08:51:56;;;;;;;2.60;1.30;;;;;;;2.72;100.00;99492.63;107330;1274;22578;-69
2023/04/05 08:54:25;;;;;;;2.70;1.30;;;;;;;2.72;100.00;99489.10;107241;1274;22539;-69
2023/04/05 08:56:53;;;;;;;2.70;1.00;;;;;;;2.76;100.00;99490.90;107483;1274;22517;-69
2023/04/05 08:59:21;;;;;;;1.40;0.90;;;;;;;2.75;100.00;99487.94;107180;1275;25241;-69
2023/04/05 09:01:51;;;;;;;2.20;1.00;;;;;;;2.75;100.00;99484.43;107469;1274;24370;-69
2023/04/05 09:04:23;;;;;;;1.70;0.90;;;;;;;2.74;100.00;99489.69;107334;1275;24324;-69
2023/04/05 09:06:51;;;;;;;2.20;1.10;;;;;;;2.80;100.00;99489.73;107533;1274;22526;-69
2023/04/05 09:09:20;;;;;;;1.80;1.10;;;;;;;2.85;100.00;99487.06;107229;1274;22520;-69
2023/04/05 09:11:49;;;;;;;2.10;1.20;;;;;;;2.89;100.00;99483.04;107336;1274;23279;-69
2023/04/05 09:14:17;;;;;;;1.40;1.00;;;;;;;2.87;100.00;99477.77;107003;1274;26539;-71
2023/04/05 09:16:46;;;;;;;2.90;1.60;;;;;;;2.86;100.00;99481.55;106975;1275;26523;-69
2023/04/05 09:19:15;;;;;;;2.30;1.50;;;;;;;2.89;100.00;99481.11;107381;1274;25369;-68
2023/04/05 09:22:00;;;;;;;2.50;1.80;;;;;;;2.96;100.00;99478.89;107514;1274;26510;-69
2023/04/05 09:24:32;;;;;;;2.80;1.80;;;;;;;2.98;100.00;99468.27;107316;1274;22523;-68
2023/04/05 09:27:17;;;;;;;3.10;1.60;;;;;;;3.03;100.00;99466.33;107333;1275;25398;-69
2023/04/05 09:29:49;;;;;;;3.50;2.10;;;;;;;3.17;100.00;99467.11;107307;1274;25348;-69
2023/04/05 09:32:20;;;;;;;4.90;2.30;;;;;;;3.20;100.00;99467.66;107346;1275;25386;-68
2023/04/05 09:34:48;;;;;;;4.00;2.40;;;;;;;3.31;100.00;99472.47;107417;1274;23394;-69
2023/04/05 09:37:23;;;;;;;3.30;1.90;;;;;;;3.42;100.00;99476.02;107303;1274;23348;-69
2023/04/05 09:40:01;;;;;;;3.30;1.80;;;;;;;3.49;100.00;99475.65;107119;1274;25143;-68
2023/04/05 09:42:30;;;;;;;2.10;1.50;;;;;;;3.55;100.00;99481.77;107165;1274;22557;-68
2023/04/05 09:45:04;;;;;;;4.90;2.50;;;;;;;3.71;100.00;99485.44;107145;1274;25338;-68
2023/04/05 09:47:37;;;;;;;6.00;3.40;;;;;;;3.78;100.00;99480.80;110398;1274;22242;-69
2023/04/05 09:50:15;;;;;;;4.30;2.40;;;;;;;3.85;100.00;99478.98;110425;1275;22385;-69
2023/04/05 09:52:43;;;;;;;3.70;2.40;;;;;;;4.01;100.00;99476.82;110479;1274;22202;-69
2023/04/05 09:55:11;;;;;;;3.90;2.20;;;;;;;4.05;100.00;99475.17;110461;1275;22219;-69
2023/04/05 09:57:40;;;;;;;3.50;1.80;;;;;;;4.09;100.00;99474.14;110462;1274;22994;-68
2023/04/05 10:00:18;;;;;;;2.80;1.90;;;;;;;4.15;100.00;99472.60;110478;1274;22210;-69
2023/04/05 10:02:51;;;;;;;;;;;;;;;4.03;100.00;99478.36;110504;1274;22526;-69
2023/04/05 10:05:22;;;;;;;3.00;1.90;;;;;;;3.90;100.00;99484.00;110240;1274;23907;-69
2023/04/05 10:07:51;;;;;;;3.40;2.50;;;;;;;3.89;100.00;99484.73;107191;1251;26062;-68
2023/04/05 10:10:19;;;;;;;3.80;2.40;;;;;;;3.84;100.00;99470.79;107330;1274;22748;-68
2023/04/05 10:12:47;;;;;;;3.20;2.00;;;;;;;3.87;100.00;99466.55;107175;1274;22562;-69
2023/04/05 10:15:18;;;;;;;3.30;2.10;;;;;;;3.89;100.00;99463.57;107179;1275;24251;-68
2023/04/05 10:17:50;;;;;;;2.90;2.00;;;;;;;3.92;100.00;99464.02;107147;1274;26493;-68
2023/04/05 10:20:19;;;;;;;3.20;2.40;;;;;;;3.85;100.00;99472.59;107331;1275;24796;-68
2023/04/05 10:22:51;;;;;;;3.60;2.30;;;;;;;3.86;100.00;99470.17;107162;1275;22521;-68
2023/04/05 10:25:41;;;;;;;3.30;2.30;;;;;;;3.93;100.00;99466.52;107389;1274;25429;-68
2023/04/05 10:28:10;;;;;;;3.30;2.20;;;;;;;3.91;100.00;99468.55;107397;1259;23616;-68
2023/04/05 10:30:45;;;;;;;3.50;2.50;;;;;;;3.94;100.00;99469.08;107220;1274;25411;-68
2023/04/05 10:33:40;;;;;;;2.70;2.00;;;;;;;3.99;100.00;99465.59;107282;1274;22596;-68
2023/04/05 10:36:48;;;;;;;4.10;2.30;;;;;;;4.05;100.00;99463.70;107243;1274;24383;-69
2023/04/05 10:39:29;;;;;;;3.20;2.10;;;;;;;4.10;100.00;99465.10;107311;1274;22594;-69
2023/04/05 10:42:06;;;;;;;3.00;2.10;;;;;;;4.11;100.00;99465.23;107441;1274;25356;-68
2023/04/05 10:44:35;;;;;;;3.00;2.10;;;;;;;4.14;100.00;99473.88;107482;1274;22649;-69
2023/04/05 10:47:04;;;;;;;3.10;2.10;;;;;;;4.11;100.00;99474.41;107297;1274;25500;-69
2023/04/05 10:49:34;;;;;;;2.80;2.30;;;;;;;4.16;100.00;99472.35;107341;1274;23420;-69
2023/04/05 10:52:02;;;;;;;3.10;2.30;;;;;;;4.22;100.00;99472.27;107369;1274;25364;-68
2023/04/05 10:54:32;;;;;;;3.80;2.40;;;;;;;4.20;100.00;99468.45;107493;1274;24207;-69
2023/04/05 10:57:02;;;;;;;3.00;2.30;;;;;;;4.19;100.00;99470.84;107337;1274;24390;-69
2023/04/05 10:59:30;;;;;;;3.40;2.30;;;;;;;4.22;100.00;99472.57;107389;1274;26506;-68
2023/04/05 11:01:58;;;;;;;3.30;2.50;;;;;;;4.22;100.00;99467.27;107136;1274;22521;-69
2023/04/05 11:04:27;;;;;;;3.30;2.30;;;;;;;4.27;100.00;99466.03;107162;1274;25349;-68
2023/04/05 11:07:11;;;;;;;2.90;2.00;;;;;;;4.32;100.00;99466.08;107323;1274;22520;-68
2023/04/05 11:10:00;;;;;;;3.00;2.10;;;;;;;4.34;100.00;99469.73;107324;1274;26793;-68
2023/04/05 11:12:45;;;;;;;4.80;2.80;;;;;;;4.37;100.00;99475.12;107323;1274;26881;-68
2023/04/05 11:15:31;;;;;;;3.90;3.00;;;;;;;4.43;100.00;99480.31;107342;1274;22575;-68
2023/04/05 11:18:07;;;;;;;3.30;2.40;;;;;;;4.45;100.00;99489.67;107375;1274;25431;-68
2023/04/05 11:20:45;;;;;;;3.00;2.30;;;;;;;4.49;100.00;99489.05;107391;1274;24378;-68
2023/04/05 11:23:15;;;;;;;3.60;2.50;;;;;;;4.54;100.00;99490.63;107396;1274;25349;-69
2023/04/05 11:25:53;;;;;;;3.80;2.50;;;;;;;4.56;100.00;99488.67;107354;1274;23890;-68
2023/04/05 11:28:27;;;;;;;4.10;2.20;;;;;;;4.60;100.00;99485.93;107130;1274;25367;-69
2023/04/05 11:30:57;;;;;;;3.30;2.30;;;;;;;4.61;100.00;99485.00;107399;1274;22677;-69
2023/04/05 11:33:42;;;;;;;3.20;2.30;;;;;;;4.62;100.00;99485.61;107328;1274;23119;-68
2023/04/05 11:36:46;;;;;;;3.50;2.40;;;;;;;4.63;100.00;99484.82;107293;1274;25361;-69
2023/04/05 11:39:17;;;;;;;3.30;2.50;;;;;;;4.70;100.00;99486.36;107225;1274;24229;-68
2023/04/05 11:42:11;;;;;;;3.90;2.90;;;;;;;4.76;100.00;99484.36;107334;1274;25577;-69
2023/04/05 11:44:47;;;;;;;4.30;3.00;;;;;;;4.71;100.00;99484.34;107352;1274;22510;-68
2023/04/05 11:47:16;;;;;;;4.60;3.30;;;;;;;4.74;100.00;99484.98;107406;1274;22540;-69
2023/04/05 11:49:46;;;;;;;4.80;3.20;;;;;;;4.80;100.00;99486.02;107392;1252;22625;-69
2023/04/05 11:52:15;;;;;;;5.20;2.80;;;;;;;4.81;100.00;99481.95;106937;1275;22604;-70